createdAt,value
2023-04-30T00:02:16.670Z,8.10
2023-04-30T00:05:18.795Z,7.57
2023-04-30T00:08:20.862Z,7.20
2023-04-30T00:11:22.990Z,7.40
2023-04-30T00:14:25.155Z,7.60
2023-04-30T00:17:27.392Z,8.38
2023-04-30T00:20:29.700Z,7.45
2023-04-30T00:23:31.783Z,7.82
2023-04-30T00:26:33.915Z,7.97
2023-04-30T00:29:36.178Z,7.47
2023-04-30T00:32:38.373Z,7.43
2023-04-30T00:35:40.785Z,7.10
2023-04-30T00:38:42.957Z,8.25
2023-04-30T00:41:45.184Z,6.47
2023-04-30T00:44:47.541Z,6.60
2023-04-30T00:47:51.654Z,8.15
2023-04-30T00:50:54.032Z,7.85
2023-04-30T00:53:56.737Z,6.50
2023-04-30T00:56:59.336Z,6.75
2023-04-30T01:00:02.219Z,8.15
2023-04-30T01:03:04.707Z,7.47
2023-04-30T01:06:06.920Z,7.63
2023-04-30T01:09:10.524Z,7.50
2023-04-30T01:12:29.762Z,6.90
2023-04-30T01:15:38.723Z,7.85
2023-04-30T01:18:49.536Z,8.45
2023-04-30T01:21:53.039Z,6.32
2023-04-30T01:25:10.105Z,7.57
2023-04-30T01:28:20.853Z,6.97
2023-04-30T01:31:24.589Z,6.82
2023-04-30T01:34:26.910Z,6.50
2023-04-30T01:38:04.159Z,7.70
2023-04-30T01:41:30.970Z,8.55
2023-04-30T01:44:58.798Z,7.10
2023-04-30T01:48:34.803Z,6.72
2023-04-30T01:51:46.733Z,8.02
2023-04-30T01:54:56.466Z,7.22
2023-04-30T01:58:05.336Z,7.28
2023-04-30T02:01:30.019Z,8.18
2023-04-30T02:04:32.503Z,7.47
2023-04-30T02:07:44.207Z,6.28
2023-04-30T02:10:46.416Z,6.47
2023-04-30T02:13:48.633Z,5.75
2023-04-30T02:16:50.835Z,6.72
2023-04-30T02:19:53.089Z,6.30
2023-04-30T02:22:55.471Z,5.97
2023-04-30T02:25:57.608Z,6.07
2023-04-30T02:28:59.652Z,6.57
2023-04-30T02:32:02.127Z,5.45
2023-04-30T02:35:04.626Z,5.38
2023-04-30T02:38:07.364Z,6.90
2023-04-30T02:41:09.387Z,7.13
2023-04-30T02:44:12.547Z,6.88
2023-04-30T02:47:15.068Z,6.88
2023-04-30T02:50:17.287Z,6.07
2023-04-30T02:53:19.502Z,7.63
2023-04-30T02:56:21.474Z,7.03
2023-04-30T02:59:23.648Z,6.45
2023-04-30T03:02:25.782Z,5.78
2023-04-30T03:05:28.876Z,6.25
2023-04-30T03:08:31.060Z,6.40
2023-04-30T03:11:33.896Z,6.95
2023-04-30T03:14:36.097Z,6.32
2023-04-30T03:17:38.368Z,6.82
2023-04-30T03:20:40.572Z,7.80
2023-04-30T03:23:42.755Z,6.53
2023-04-30T03:26:44.747Z,6.55
2023-04-30T03:29:47.063Z,6.00
2023-04-30T03:32:49.184Z,6.68
2023-04-30T03:35:52.008Z,6.03
2023-04-30T03:38:54.658Z,7.70
2023-04-30T03:41:56.792Z,6.85
2023-04-30T03:44:58.886Z,6.30
2023-04-30T03:48:01.076Z,6.30
2023-04-30T03:51:03.509Z,7.22
2023-04-30T03:54:08.768Z,6.05
2023-04-30T03:57:13.050Z,6.30
2023-04-30T04:00:15.697Z,6.15
2023-04-30T04:03:23.342Z,5.57
2023-04-30T04:06:25.556Z,6.13
2023-04-30T04:09:27.663Z,6.53
2023-04-30T04:12:29.730Z,6.75
2023-04-30T04:15:36.974Z,7.00
2023-04-30T04:18:40.723Z,6.55
2023-04-30T04:21:43.013Z,8.25
2023-04-30T04:24:50.026Z,5.85
2023-04-30T04:27:55.492Z,8.23
2023-04-30T04:30:57.727Z,7.22
2023-04-30T04:34:01.474Z,5.40
2023-04-30T04:37:03.784Z,5.63
2023-04-30T04:40:07.220Z,6.40
2023-04-30T04:43:09.368Z,6.78
2023-04-30T04:46:13.763Z,5.57
2023-04-30T04:49:16.674Z,5.55
2023-04-30T04:52:18.776Z,5.55
2023-04-30T04:55:20.848Z,6.90
2023-04-30T04:58:22.982Z,6.00
2023-04-30T05:01:25.190Z,6.78
2023-04-30T05:04:28.137Z,7.85
2023-04-30T05:07:30.329Z,6.43
2023-04-30T05:10:32.821Z,7.20
2023-04-30T05:13:34.918Z,7.68
2023-04-30T05:16:37.305Z,6.05
2023-04-30T05:19:39.639Z,6.57
2023-04-30T05:22:41.936Z,7.50
2023-04-30T05:25:47.531Z,6.90
2023-04-30T05:29:19.087Z,6.45
2023-04-30T05:32:23.409Z,7.03
2023-04-30T05:35:30.619Z,7.00
2023-04-30T05:38:33.036Z,7.72
2023-04-30T05:41:35.103Z,6.70
2023-04-30T05:44:37.417Z,6.68
2023-04-30T05:47:39.544Z,5.88
2023-04-30T05:50:41.714Z,6.30
2023-04-30T05:53:43.836Z,5.22
2023-04-30T05:56:46.518Z,5.70
2023-04-30T05:59:48.539Z,5.47
2023-04-30T06:02:50.893Z,3.97
2023-04-30T06:05:54.265Z,5.93
2023-04-30T06:08:56.464Z,4.55
2023-04-30T06:11:58.664Z,27.30
2023-04-30T06:15:00.869Z,6.63
2023-04-30T06:18:03.380Z,6.72
2023-04-30T06:21:05.710Z,5.85
2023-04-30T06:24:10.151Z,5.22
2023-04-30T06:27:12.277Z,6.07
2023-04-30T06:30:15.682Z,5.50
2023-04-30T06:33:18.264Z,6.25
2023-04-30T06:36:20.523Z,6.03
2023-04-30T06:39:22.632Z,5.43
2023-04-30T06:42:24.621Z,4.60
2023-04-30T06:45:26.928Z,5.32
2023-04-30T06:48:29.291Z,4.45
2023-04-30T06:51:31.464Z,5.50
2023-04-30T06:54:33.608Z,4.57
2023-04-30T06:57:38.621Z,3.65
2023-04-30T07:00:40.975Z,3.70
2023-04-30T07:03:43.231Z,4.78
2023-04-30T07:06:49.711Z,2.95
2023-04-30T07:09:53.750Z,5.15
2023-04-30T07:12:56.894Z,3.40
2023-04-30T07:15:59.738Z,3.33
2023-04-30T07:19:01.902Z,3.75
2023-04-30T07:22:04.220Z,2.78
2023-04-30T07:25:06.995Z,4.78
2023-04-30T07:28:09.045Z,2.25
2023-04-30T07:31:11.258Z,2.05
2023-04-30T07:34:13.491Z,1.75
2023-04-30T07:37:16.386Z,2.35
2023-04-30T07:40:25.377Z,1.88
2023-04-30T07:43:37.388Z,3.50
2023-04-30T07:46:40.186Z,2.50
2023-04-30T07:49:42.467Z,3.35
2023-04-30T07:52:52.144Z,2.85
2023-04-30T07:55:54.267Z,2.28
2023-04-30T07:58:56.389Z,2.63
2023-04-30T08:01:59.228Z,2.10
2023-04-30T08:05:01.675Z,2.30
2023-04-30T08:08:03.845Z,2.95
2023-04-30T08:11:06.261Z,2.28
2023-04-30T08:14:08.502Z,2.95
2023-04-30T08:17:12.152Z,2.47
2023-04-30T08:20:14.356Z,3.30
2023-04-30T08:23:17.361Z,4.20
2023-04-30T08:26:20.464Z,1.88
2023-04-30T08:29:22.531Z,2.67
2023-04-30T08:32:24.928Z,1.60
2023-04-30T08:35:27.145Z,3.08
2023-04-30T08:38:29.307Z,2.13
2023-04-30T08:41:34.476Z,2.22
2023-04-30T08:44:43.975Z,2.45
2023-04-30T08:47:46.840Z,1.60
2023-04-30T08:50:49.036Z,1.00
2023-04-30T08:53:53.486Z,2.25
2023-04-30T08:56:55.472Z,2.13
2023-04-30T08:59:58.240Z,1.70
2023-04-30T09:03:02.263Z,2.28
2023-04-30T09:06:05.950Z,1.52
2023-04-30T09:09:16.565Z,2.10
2023-04-30T09:12:20.027Z,1.10
2023-04-30T09:15:24.449Z,2.88
2023-04-30T09:18:26.695Z,2.20
2023-04-30T09:21:38.868Z,2.63
2023-04-30T09:24:52.201Z,2.20
2023-04-30T09:28:12.294Z,2.20
2023-04-30T09:31:22.256Z,2.13
2023-04-30T09:34:35.408Z,1.92
2023-04-30T09:37:38.847Z,3.17
2023-04-30T09:40:42.770Z,1.52
2023-04-30T09:43:45.717Z,1.10
2023-04-30T09:46:51.108Z,2.17
2023-04-30T09:49:57.162Z,2.72
2023-04-30T09:53:21.114Z,3.78
2023-04-30T09:56:37.237Z,1.50
2023-04-30T10:00:00.035Z,1.63
2023-04-30T10:03:12.071Z,1.63
2023-04-30T10:06:16.961Z,2.05
2023-04-30T10:09:25.376Z,1.27
2023-04-30T10:12:59.728Z,2.28
2023-04-30T10:16:24.197Z,1.02
2023-04-30T10:19:32.427Z,2.13
2023-04-30T10:22:36.740Z,1.95
2023-04-30T10:25:41.611Z,1.35
2023-04-30T10:28:50.210Z,0.95
2023-04-30T10:35:06.613Z,0.75
2023-04-30T10:38:17.936Z,2.20
2023-04-30T10:41:25.816Z,1.80
2023-04-30T10:44:28.220Z,2.20
2023-04-30T10:47:32.550Z,1.83
2023-04-30T10:50:45.025Z,1.95
2023-04-30T10:53:52.060Z,1.35
2023-04-30T10:57:11.619Z,1.23
2023-04-30T11:00:14.676Z,1.70
2023-04-30T11:03:17.129Z,1.83
2023-04-30T11:06:22.240Z,1.83
2023-04-30T11:09:45.669Z,1.02
2023-04-30T11:12:49.418Z,1.02
2023-04-30T11:15:51.769Z,1.70
2023-04-30T11:18:54.589Z,2.65
2023-04-30T11:22:17.130Z,1.52
2023-04-30T11:25:20.064Z,2.70
2023-04-30T11:28:26.347Z,0.82
2023-04-30T11:31:35.186Z,2.67
2023-04-30T11:34:38.219Z,1.77
2023-04-30T11:37:45.506Z,1.65
2023-04-30T11:40:52.200Z,1.83
2023-04-30T11:43:54.425Z,1.52
2023-04-30T11:46:56.825Z,2.20
2023-04-30T11:49:59.094Z,0.80
2023-04-30T11:53:05.753Z,1.88
2023-04-30T11:56:12.005Z,3.22
2023-04-30T11:59:16.362Z,6.75
2023-04-30T12:02:20.461Z,3.45
2023-04-30T12:05:26.955Z,1.45
2023-04-30T12:08:32.139Z,1.10
2023-04-30T12:11:35.999Z,1.70
2023-04-30T12:32:19.106Z,1.50
2023-04-30T12:35:23.367Z,1.10
2023-04-30T12:38:26.347Z,2.90
2023-04-30T12:41:30.483Z,2.97
2023-04-30T12:44:43.491Z,2.08
2023-04-30T12:47:55.573Z,2.30
2023-04-30T12:51:02.648Z,0.85
2023-04-30T12:54:05.046Z,1.85
2023-04-30T12:57:13.805Z,1.63
2023-04-30T13:01:30.832Z,3.05
2023-04-30T13:10:22.751Z,0.77
2023-04-30T13:13:25.323Z,1.75
2023-04-30T13:21:16.627Z,2.20
2023-04-30T13:24:19.808Z,2.42
2023-04-30T13:27:27.778Z,2.17
2023-04-30T13:30:30.871Z,1.85
2023-04-30T13:33:33.117Z,2.67
2023-04-30T13:37:00.582Z,4.40
2023-04-30T13:45:29.759Z,2.22
2023-04-30T13:48:31.846Z,2.17
2023-04-30T13:51:34.748Z,1.70
2023-04-30T13:54:37.822Z,1.30
2023-04-30T13:57:40.389Z,1.95
2023-04-30T14:00:42.832Z,2.42
2023-04-30T14:04:14.512Z,1.45
2023-04-30T14:07:41.004Z,1.20
2023-04-30T14:10:44.532Z,1.63
2023-04-30T14:13:49.338Z,0.73
2023-04-30T14:16:51.930Z,1.40
2023-04-30T14:19:57.428Z,1.15
2023-04-30T14:23:02.626Z,1.40
2023-04-30T14:26:05.922Z,1.25
2023-04-30T14:29:09.233Z,1.15
2023-04-30T14:32:38.266Z,1.15
2023-04-30T14:52:47.937Z,1.63
2023-04-30T14:55:53.495Z,1.15
2023-04-30T14:58:55.611Z,1.95
2023-04-30T15:06:47.492Z,2.08
2023-04-30T15:09:50.466Z,2.45
2023-04-30T15:12:52.642Z,1.50
2023-04-30T15:15:54.860Z,1.33
2023-04-30T15:18:57.172Z,3.45
2023-04-30T15:21:59.755Z,1.30
2023-04-30T15:25:02.515Z,2.40
2023-04-30T15:28:05.902Z,1.65
2023-04-30T15:31:08.597Z,2.22
2023-04-30T15:34:10.740Z,2.65
2023-04-30T15:37:12.995Z,1.33
2023-04-30T15:40:18.761Z,1.35
2023-04-30T15:43:21.513Z,2.63
2023-04-30T15:46:26.190Z,1.33
2023-04-30T15:49:29.876Z,1.77
2023-04-30T15:52:32.316Z,2.10
2023-04-30T15:55:34.853Z,2.08
2023-04-30T15:58:39.315Z,1.92
2023-04-30T16:01:46.841Z,2.22
2023-04-30T16:04:51.050Z,2.72
2023-04-30T16:07:55.186Z,2.55
2023-04-30T16:10:58.165Z,2.22
2023-04-30T16:14:00.310Z,1.45
2023-04-30T16:17:02.998Z,1.55
2023-04-30T16:20:10.796Z,2.25
2023-04-30T16:23:13.129Z,2.03
2023-04-30T16:26:16.185Z,1.67
2023-04-30T16:29:26.567Z,2.40
2023-04-30T16:32:28.659Z,2.13
2023-04-30T16:35:38.650Z,2.95
2023-04-30T16:38:43.152Z,2.67
2023-04-30T16:41:45.464Z,3.30
2023-04-30T16:44:47.579Z,2.72
2023-04-30T16:47:49.842Z,2.70
2023-04-30T16:50:52.586Z,2.35
2023-04-30T16:53:57.164Z,2.60
2023-04-30T16:56:59.530Z,1.83
2023-04-30T17:00:01.615Z,1.98
2023-04-30T17:03:05.593Z,4.90
2023-04-30T17:06:10.106Z,3.22
2023-04-30T17:09:12.537Z,1.48
2023-04-30T17:12:21.395Z,3.10
2023-04-30T17:19:32.461Z,4.43
2023-04-30T17:22:35.024Z,1.83
2023-04-30T17:25:38.360Z,2.28
2023-04-30T17:28:40.414Z,3.28
2023-04-30T17:31:44.370Z,3.38
2023-04-30T17:34:46.680Z,3.47
2023-04-30T17:37:50.244Z,2.97
2023-04-30T17:40:54.576Z,2.83
2023-04-30T17:43:57.423Z,2.42
2023-04-30T17:46:59.642Z,3.92
2023-04-30T17:50:04.937Z,2.90
2023-04-30T17:53:07.889Z,4.25
2023-04-30T17:56:12.510Z,6.53
2023-04-30T17:59:15.900Z,4.07
2023-04-30T18:02:32.790Z,6.22
2023-04-30T18:05:35.766Z,3.70
2023-04-30T18:08:39.469Z,4.13
2023-04-30T18:11:49.440Z,6.10
2023-04-30T18:14:51.490Z,5.57
2023-04-30T18:17:55.207Z,7.30
2023-04-30T18:20:57.499Z,8.02
2023-04-30T18:24:01.249Z,5.47
2023-04-30T18:27:04.064Z,7.18
2023-04-30T18:30:08.996Z,6.38
2023-04-30T18:33:11.041Z,5.65
2023-04-30T18:36:13.322Z,5.55
2023-04-30T18:39:15.458Z,5.40
2023-04-30T18:42:17.895Z,5.95
2023-04-30T18:45:20.713Z,6.22
2023-04-30T18:48:24.136Z,3.60
2023-04-30T18:51:26.630Z,4.57
2023-04-30T18:54:30.316Z,4.65
2023-04-30T18:57:32.548Z,4.70
2023-04-30T19:00:34.640Z,3.42
2023-04-30T19:03:37.120Z,4.78
2023-04-30T19:06:40.112Z,3.13
2023-04-30T19:09:45.446Z,3.25
2023-04-30T19:12:47.831Z,3.15
2023-04-30T19:15:55.479Z,3.85
2023-04-30T19:18:58.349Z,2.72
2023-04-30T19:22:02.520Z,4.00
2023-04-30T19:25:05.724Z,4.63
2023-04-30T19:28:12.980Z,5.05
2023-04-30T19:31:16.113Z,4.93
2023-04-30T19:34:18.196Z,5.60
2023-04-30T19:37:20.234Z,5.85
2023-04-30T19:40:23.006Z,6.05
2023-04-30T19:43:25.285Z,5.15
2023-04-30T19:46:27.610Z,6.63
2023-04-30T19:49:29.790Z,5.72
2023-04-30T19:52:31.988Z,5.90
2023-04-30T19:55:35.177Z,6.78
2023-04-30T19:58:37.369Z,8.27
2023-04-30T20:01:40.173Z,8.40
2023-04-30T20:04:42.283Z,10.98
2023-04-30T20:07:44.343Z,10.50
2023-04-30T20:10:51.011Z,8.93
2023-04-30T20:13:55.321Z,9.70
2023-04-30T20:16:59.582Z,10.98
2023-04-30T20:20:02.967Z,8.95
2023-04-30T20:23:17.096Z,9.27
2023-04-30T20:26:21.195Z,7.85
2023-04-30T20:29:23.545Z,7.65
2023-04-30T20:32:29.006Z,8.43
2023-04-30T20:35:32.324Z,9.32
2023-04-30T20:38:34.809Z,8.07
2023-04-30T20:41:36.986Z,8.25
2023-04-30T20:44:41.396Z,7.93
2023-04-30T20:47:43.484Z,6.65
2023-04-30T20:50:46.276Z,6.85
2023-04-30T20:53:48.503Z,6.55
2023-04-30T20:56:50.668Z,6.05
2023-04-30T20:59:52.825Z,7.10
2023-04-30T21:02:55.133Z,7.82
2023-04-30T21:05:57.493Z,7.13
2023-04-30T21:08:59.675Z,6.75
2023-04-30T21:12:04.585Z,6.03
2023-04-30T21:15:07.651Z,6.53
2023-04-30T21:18:09.907Z,4.82
2023-04-30T21:21:12.382Z,6.45
2023-04-30T21:24:14.675Z,5.68
2023-04-30T21:27:16.777Z,6.05
2023-04-30T21:30:19.289Z,5.32
2023-04-30T21:33:21.505Z,5.47
2023-04-30T21:36:24.095Z,5.97
2023-04-30T21:39:26.993Z,6.32
2023-04-30T21:42:29.905Z,6.35
2023-04-30T21:45:32.622Z,6.32
2023-04-30T21:48:34.712Z,5.85
2023-04-30T21:51:37.560Z,6.75
2023-04-30T21:54:39.723Z,5.47
2023-04-30T21:57:41.864Z,6.55
2023-04-30T22:00:43.988Z,6.40
2023-04-30T22:03:46.158Z,5.97
2023-04-30T22:06:48.451Z,5.80
2023-04-30T22:09:52.764Z,5.53
2023-04-30T22:12:54.824Z,4.85
2023-04-30T22:15:57.076Z,5.18
2023-04-30T22:18:59.636Z,5.25
2023-04-30T22:22:01.979Z,6.75
2023-04-30T22:25:04.756Z,4.93
2023-04-30T22:28:07.349Z,6.75
2023-04-30T22:31:09.648Z,6.65
2023-04-30T22:34:14.473Z,6.80
2023-04-30T22:37:16.781Z,5.63
2023-04-30T22:40:19.368Z,5.60
2023-04-30T22:43:21.594Z,4.72
2023-04-30T22:46:23.809Z,5.28
2023-04-30T22:49:31.061Z,5.22
2023-04-30T22:52:34.650Z,5.90
2023-04-30T22:55:36.836Z,4.57
2023-04-30T22:58:38.887Z,5.55
2023-04-30T23:01:40.937Z,4.63
2023-04-30T23:04:43.096Z,4.78
2023-04-30T23:07:48.855Z,4.10
2023-04-30T23:10:53.220Z,4.45
2023-04-30T23:13:55.937Z,4.82
2023-04-30T23:16:59.905Z,4.57
2023-04-30T23:20:02.126Z,5.25
2023-04-30T23:23:04.173Z,4.55
2023-04-30T23:26:06.567Z,3.65
2023-04-30T23:29:08.723Z,4.60
2023-04-30T23:32:10.858Z,3.80
2023-04-30T23:35:13.050Z,5.10
2023-04-30T23:38:15.545Z,4.90
2023-04-30T23:41:18.104Z,5.03
2023-04-30T23:44:20.692Z,3.65
2023-04-30T23:47:23.215Z,3.85
2023-04-30T23:50:27.060Z,3.97
2023-04-30T23:53:29.381Z,5.03
2023-04-30T23:56:33.572Z,4.60
2023-04-30T23:59:35.651Z,3.97
